createdAt,value
2022-09-16T00:00:32.627Z,100593.88
2022-09-16T00:01:37.031Z,100606.25
2022-09-16T00:02:40.206Z,100602.56
2022-09-16T00:03:43.242Z,100599.91
2022-09-16T00:04:44.798Z,100602.56
2022-09-16T00:05:49.421Z,100605.25
2022-09-16T00:06:52.320Z,100608.75
2022-09-16T00:07:55.511Z,100615.94
2022-09-16T00:09:00.275Z,100618.63
2022-09-16T00:10:02.826Z,100613.25
2022-09-16T00:11:04.563Z,100620.63
2022-09-16T00:12:08.014Z,100620.63
2022-09-16T00:13:10.406Z,100619.91
2022-09-16T00:14:12.907Z,100619.25
2022-09-16T00:15:14.568Z,100623.75
2022-09-16T00:16:20.988Z,100627.44
2022-09-16T00:17:22.875Z,100631.94
2022-09-16T00:18:25.535Z,100626.59
2022-09-16T00:19:27.067Z,100627.59
2022-09-16T00:20:29.698Z,100620.56
2022-09-16T00:21:31.561Z,100624.06
2022-09-16T00:22:35.974Z,100630.25
2022-09-16T00:23:38.088Z,100625.91
2022-09-16T00:24:40.585Z,100627.59
2022-09-16T00:25:42.131Z,100627.72
2022-09-16T00:26:44.871Z,100628.56
2022-09-16T00:27:48.078Z,100627.91
2022-09-16T00:28:51.518Z,100628.88
2022-09-16T00:29:53.692Z,100627.22
2022-09-16T00:30:59.969Z,100630.19
2022-09-16T00:32:01.937Z,100632.19
2022-09-16T00:33:04.604Z,100621.81
2022-09-16T00:34:06.408Z,100632.81
2022-09-16T00:35:09.153Z,100625.97
2022-09-16T00:36:12.852Z,100625.44
2022-09-16T00:37:15.451Z,100636.44
2022-09-16T00:38:18.379Z,100633.78
2022-09-16T00:39:20.908Z,100629.72
2022-09-16T00:40:22.938Z,100631.56
2022-09-16T00:41:28.024Z,100629.19
2022-09-16T00:42:29.564Z,100632.00
2022-09-16T00:43:49.515Z,100629.50
2022-09-16T00:44:57.204Z,100634.00
2022-09-16T00:46:05.856Z,100628.13
2022-09-16T00:47:07.475Z,100639.97
2022-09-16T00:48:16.446Z,100632.28
2022-09-16T00:49:25.078Z,100632.41
2022-09-16T00:50:35.914Z,100638.06
2022-09-16T00:51:38.338Z,100635.69
2022-09-16T00:52:42.895Z,100635.88
2022-09-16T00:53:52.004Z,100641.34
2022-09-16T00:54:54.914Z,100634.50
2022-09-16T00:55:59.860Z,100628.47
2022-09-16T00:57:04.717Z,100629.47
2022-09-16T00:58:12.356Z,100627.78
2022-09-16T00:59:19.074Z,100633.25
2022-09-16T01:00:20.878Z,100639.72
2022-09-16T01:01:23.607Z,100639.03
2022-09-16T01:02:26.255Z,100638.38
2022-09-16T01:03:31.197Z,100635.84
2022-09-16T01:04:40.404Z,100628.81
2022-09-16T01:05:45.283Z,100630.66
2022-09-16T01:06:47.073Z,100630.66
2022-09-16T01:07:51.639Z,100628.13
2022-09-16T01:08:56.087Z,100628.97
2022-09-16T01:09:59.555Z,100636.16
2022-09-16T01:11:01.359Z,100633.34
2022-09-16T01:12:03.973Z,100626.31
2022-09-16T01:13:10.085Z,100631.47
2022-09-16T01:14:31.081Z,100627.81
2022-09-16T01:15:40.358Z,100625.81
2022-09-16T01:16:44.954Z,100621.31
2022-09-16T01:17:57.880Z,100625.69
2022-09-16T01:19:09.831Z,100627.38
2022-09-16T01:20:32.444Z,100632.53
2022-09-16T01:21:44.206Z,100625.38
2022-09-16T01:23:07.970Z,100631.44
2022-09-16T01:24:36.367Z,100627.63
2022-09-16T01:25:55.654Z,100625.81
2022-09-16T01:27:31.353Z,100616.78
2022-09-16T01:28:58.224Z,100615.78
2022-09-16T01:30:41.164Z,100618.16
2022-09-16T01:31:49.440Z,100619.00
2022-09-16T01:33:04.767Z,100614.50
2022-09-16T01:34:17.333Z,100618.00
2022-09-16T01:35:28.210Z,100610.81
2022-09-16T01:36:44.665Z,100610.69
2022-09-16T01:37:57.945Z,100608.00
2022-09-16T01:39:10.125Z,100606.19
2022-09-16T01:40:18.398Z,100615.03
2022-09-16T01:41:28.114Z,100609.53
2022-09-16T01:42:37.556Z,100614.03
2022-09-16T01:43:51.666Z,100611.22
2022-09-16T01:45:01.615Z,100616.25
2022-09-16T01:46:16.457Z,100611.88
2022-09-16T01:47:23.739Z,100621.72
2022-09-16T01:48:34.776Z,100621.72
2022-09-16T01:49:47.097Z,100620.59
2022-09-16T01:50:58.308Z,100631.28
2022-09-16T01:52:12.486Z,100625.94
2022-09-16T01:53:19.527Z,100625.78
2022-09-16T01:54:27.116Z,100627.59
2022-09-16T01:55:33.036Z,100627.78
2022-09-16T01:56:43.260Z,100625.94
2022-09-16T01:57:50.548Z,100628.44
2022-09-16T01:58:57.089Z,100623.94
2022-09-16T02:00:02.728Z,100624.78
2022-09-16T02:01:13.864Z,100620.44
2022-09-16T02:02:20.041Z,100620.28
2022-09-16T02:03:27.891Z,100615.94
2022-09-16T02:04:34.788Z,100617.63
2022-09-16T02:05:45.993Z,100617.75
2022-09-16T02:06:50.753Z,100616.06
2022-09-16T02:07:58.167Z,100609.91
2022-09-16T02:09:04.575Z,100610.72
2022-09-16T02:10:14.463Z,100610.91
2022-09-16T02:11:18.080Z,100606.41
2022-09-16T02:12:26.459Z,100607.38
2022-09-16T02:13:32.776Z,100605.69
2022-09-16T02:14:40.552Z,100593.19
2022-09-16T02:15:43.853Z,100598.53
2022-09-16T02:16:52.968Z,100593.19
2022-09-16T02:18:01.167Z,100596.69
2022-09-16T02:19:12.341Z,100597.53
2022-09-16T02:20:19.953Z,100596.56
2022-09-16T02:21:26.498Z,100598.22
2022-09-16T02:22:34.865Z,100600.75
2022-09-16T02:23:42.568Z,100597.38
2022-09-16T02:24:46.698Z,100599.91
2022-09-16T02:25:51.031Z,100605.25
2022-09-16T02:26:56.764Z,100600.75
2022-09-16T02:28:03.494Z,100596.06
2022-09-16T02:29:10.695Z,100598.75
2022-09-16T02:30:17.784Z,100603.94
2022-09-16T02:31:23.771Z,100605.59
2022-09-16T02:32:32.134Z,100604.78
2022-09-16T02:33:39.780Z,100605.59
2022-09-16T02:34:46.233Z,100599.28
2022-09-16T02:35:51.934Z,100596.59
2022-09-16T02:37:01.624Z,100595.44
2022-09-16T02:38:07.150Z,100594.59
2022-09-16T02:39:13.853Z,100597.13
2022-09-16T02:40:19.850Z,100597.13
2022-09-16T02:41:23.562Z,100600.78
2022-09-16T02:42:25.462Z,100599.94
2022-09-16T02:43:29.399Z,100601.63
2022-09-16T02:44:31.404Z,100606.97
2022-09-16T02:45:41.874Z,100598.28
2022-09-16T02:46:56.333Z,100595.63
2022-09-16T02:48:06.325Z,100597.44
2022-09-16T02:49:14.582Z,100596.59
2022-09-16T02:50:24.519Z,100594.91
2022-09-16T02:51:37.353Z,100599.44
2022-09-16T02:52:47.498Z,100603.09
2022-09-16T02:53:54.888Z,100589.88
2022-09-16T02:55:06.816Z,100592.72
2022-09-16T02:56:15.450Z,100597.22
2022-09-16T02:57:18.531Z,100593.03
2022-09-16T02:58:20.312Z,100590.50
2022-09-16T02:59:23.489Z,100589.84
2022-09-16T03:00:25.758Z,100592.66
2022-09-16T03:01:30.143Z,100590.16
2022-09-16T03:02:32.856Z,100588.47
2022-09-16T03:03:37.123Z,100588.47
2022-09-16T03:04:39.075Z,100591.13
2022-09-16T03:06:07.941Z,100594.78
2022-09-16T03:07:12.245Z,100588.78
2022-09-16T03:08:14.080Z,100589.75
2022-09-16T03:09:19.046Z,100594.25
2022-09-16T03:10:25.644Z,100587.25
2022-09-16T03:12:06.662Z,100588.41
2022-09-16T03:13:16.721Z,100586.72
2022-09-16T03:14:36.213Z,100588.69
2022-09-16T03:15:51.444Z,100591.38
2022-09-16T03:17:02.405Z,100591.38
2022-09-16T03:18:21.614Z,100596.69
2022-09-16T03:19:34.444Z,100588.69
2022-09-16T03:20:47.684Z,100592.34
2022-09-16T03:21:59.703Z,100594.31
2022-09-16T03:23:08.944Z,100592.66
2022-09-16T03:24:16.568Z,100591.94
2022-09-16T03:25:33.588Z,100592.97
2022-09-16T03:26:42.476Z,100593.94
2022-09-16T03:27:51.894Z,100595.78
2022-09-16T03:29:05.496Z,100594.25
2022-09-16T03:30:10.906Z,100591.59
2022-09-16T03:31:18.489Z,100594.41
2022-09-16T03:32:25.064Z,100587.41
2022-09-16T03:33:32.428Z,100597.25
2022-09-16T03:34:41.057Z,100585.84
2022-09-16T03:35:45.481Z,100590.50
2022-09-16T03:36:53.827Z,100591.66
2022-09-16T03:37:58.240Z,100587.47
2022-09-16T03:39:02.512Z,100594.78
2022-09-16T03:40:09.960Z,100589.75
2022-09-16T03:41:13.483Z,100594.56
2022-09-16T03:42:16.052Z,100593.72
2022-09-16T03:43:18.989Z,100591.34
2022-09-16T03:44:21.522Z,100594.19
2022-09-16T03:45:23.707Z,100583.66
2022-09-16T03:46:28.671Z,100590.81
2022-09-16T03:47:30.245Z,100591.81
2022-09-16T03:48:32.742Z,100589.28
2022-09-16T03:49:36.511Z,100592.13
2022-09-16T03:50:39.088Z,100589.59
2022-09-16T03:51:40.630Z,100587.06
2022-09-16T03:52:43.188Z,100592.56
2022-09-16T03:53:44.762Z,100590.88
2022-09-16T03:54:47.329Z,100582.88
2022-09-16T03:55:49.216Z,100582.03
2022-09-16T03:56:51.809Z,100590.22
2022-09-16T03:57:53.438Z,100583.19
2022-09-16T03:58:55.985Z,100576.31
2022-09-16T03:59:57.609Z,100579.13
2022-09-16T04:01:00.115Z,100579.28
2022-09-16T04:02:03.078Z,100579.44
2022-09-16T04:03:05.922Z,100578.75
2022-09-16T04:04:07.919Z,100577.06
2022-09-16T04:05:12.063Z,100576.53
2022-09-16T04:06:13.759Z,100583.56
2022-09-16T04:07:16.354Z,100577.38
2022-09-16T04:08:17.906Z,100574.88
2022-09-16T04:09:20.483Z,100572.34
2022-09-16T04:10:22.304Z,100575.97
2022-09-16T04:11:24.766Z,100570.81
2022-09-16T04:12:26.302Z,100569.00
2022-09-16T04:13:31.035Z,100565.63
2022-09-16T04:14:33.540Z,100567.31
2022-09-16T04:15:36.933Z,100569.13
2022-09-16T04:16:43.001Z,100567.31
2022-09-16T04:17:46.627Z,100577.66
2022-09-16T04:18:49.861Z,100567.00
2022-09-16T04:19:52.964Z,100569.53
2022-09-16T04:20:59.233Z,100574.69
2022-09-16T04:22:04.137Z,100574.56
2022-09-16T04:23:05.710Z,100570.06
2022-09-16T04:24:12.659Z,100573.41
2022-09-16T04:25:16.472Z,100575.09
2022-09-16T04:26:19.196Z,100570.44
2022-09-16T04:27:20.732Z,100577.47
2022-09-16T04:28:23.352Z,100587.13
2022-09-16T04:29:24.937Z,100588.81
2022-09-16T04:30:27.545Z,100584.47
2022-09-16T04:31:29.087Z,100579.13
2022-09-16T04:32:31.637Z,100580.28
2022-09-16T04:33:35.335Z,100582.94
2022-09-16T04:34:37.849Z,100588.16
2022-09-16T04:35:39.403Z,100589.13
2022-09-16T04:36:43.326Z,100582.94
2022-09-16T04:37:46.609Z,100586.59
2022-09-16T04:38:50.461Z,100583.13
2022-09-16T04:39:53.292Z,100583.78
2022-09-16T04:41:00.988Z,100578.44
2022-09-16T04:42:05.331Z,100586.47
2022-09-16T04:43:09.510Z,100584.63
2022-09-16T04:44:12.206Z,100587.31
2022-09-16T04:45:13.859Z,100584.63
2022-09-16T04:46:16.485Z,100578.31
2022-09-16T04:47:18.059Z,100579.84
2022-09-16T04:48:22.504Z,100579.66
2022-09-16T04:49:24.093Z,100581.22
2022-09-16T04:50:27.597Z,100579.53
2022-09-16T04:51:29.695Z,100579.53
2022-09-16T04:52:34.336Z,100576.03
2022-09-16T04:53:37.059Z,100571.53
2022-09-16T04:54:39.595Z,100587.53
2022-09-16T04:55:41.160Z,100579.53
2022-09-16T04:56:43.668Z,100576.03
2022-09-16T04:57:45.229Z,100573.34
2022-09-16T04:58:49.050Z,100571.66
2022-09-16T04:59:50.621Z,100579.53
2022-09-16T05:00:53.466Z,100575.16
2022-09-16T05:01:55.070Z,100574.19
2022-09-16T05:02:57.964Z,100579.53
2022-09-16T05:04:01.467Z,100568.84
2022-09-16T05:05:04.502Z,100569.84
2022-09-16T05:06:08.057Z,100569.53
2022-09-16T05:07:10.862Z,100568.69
2022-09-16T05:08:13.795Z,100566.88
2022-09-16T05:09:16.270Z,100570.69
2022-09-16T05:10:17.932Z,100568.84
2022-09-16T05:11:22.818Z,100569.84
2022-09-16T05:12:25.569Z,100570.81
2022-09-16T05:13:30.007Z,100564.81
2022-09-16T05:14:32.661Z,100569.28
2022-09-16T05:15:34.287Z,100564.13
2022-09-16T05:16:39.865Z,100569.47
2022-09-16T05:17:50.943Z,100575.78
2022-09-16T05:18:56.245Z,100572.44
2022-09-16T05:19:58.139Z,100577.06
2022-09-16T05:21:01.612Z,100560.38
2022-09-16T05:22:07.095Z,100570.34
2022-09-16T05:23:10.574Z,100566.03
2022-09-16T05:24:15.017Z,100569.00
2022-09-16T05:25:16.877Z,100570.94
2022-09-16T05:26:21.865Z,100572.94
2022-09-16T05:27:23.644Z,100569.59
2022-09-16T05:28:26.119Z,100573.91
2022-09-16T05:29:27.659Z,100574.94
2022-09-16T05:30:30.210Z,100577.59
2022-09-16T05:31:33.531Z,100581.94
2022-09-16T05:32:36.207Z,100576.75
2022-09-16T05:33:38.266Z,100587.25
2022-09-16T05:34:40.799Z,100580.28
2022-09-16T05:35:42.794Z,100583.63
2022-09-16T05:36:47.522Z,100576.44
2022-09-16T05:37:49.677Z,100583.44
2022-09-16T05:39:18.199Z,100584.28
2022-09-16T05:40:15.942Z,100578.81
2022-09-16T05:41:18.687Z,100581.50
2022-09-16T05:42:20.227Z,100580.66
2022-09-16T05:43:22.761Z,100583.31
2022-09-16T05:44:25.260Z,100574.47
2022-09-16T05:45:32.071Z,100580.78
2022-09-16T05:46:35.086Z,100582.63
2022-09-16T05:47:37.680Z,100581.94
2022-09-16T05:48:39.324Z,100578.56
2022-09-16T05:49:41.849Z,100579.56
2022-09-16T05:50:51.964Z,100582.38
2022-09-16T05:51:54.911Z,100576.22
2022-09-16T05:52:57.428Z,100579.84
2022-09-16T05:54:00.810Z,100578.03
2022-09-16T05:55:02.378Z,100582.53
2022-09-16T05:56:08.186Z,100580.53
2022-09-16T05:57:11.159Z,100579.72
2022-09-16T05:58:12.717Z,100584.91
2022-09-16T05:59:16.458Z,100583.91
2022-09-16T06:00:18.154Z,100587.44
2022-09-16T06:01:22.471Z,100585.44
2022-09-16T06:02:25.672Z,100584.47
2022-09-16T06:03:28.208Z,100589.63
2022-09-16T06:04:30.896Z,100589.50
2022-09-16T06:05:32.984Z,100589.31
2022-09-16T06:06:37.074Z,100583.00
2022-09-16T06:07:38.607Z,100582.03
2022-09-16T06:08:42.024Z,100591.69
2022-09-16T06:09:43.632Z,100587.06
2022-09-16T06:10:46.146Z,100582.41
2022-09-16T06:11:50.805Z,100598.09
2022-09-16T06:12:53.290Z,100589.97
2022-09-16T06:13:56.436Z,100580.81
2022-09-16T06:14:58.977Z,100593.00
2022-09-16T06:16:01.845Z,100580.38
2022-09-16T06:17:04.519Z,100583.72
2022-09-16T06:18:06.653Z,100589.72
2022-09-16T06:19:13.034Z,100585.94
2022-09-16T06:20:16.028Z,100583.94
2022-09-16T06:21:18.675Z,100586.31
2022-09-16T06:22:21.275Z,100592.38
2022-09-16T06:23:23.914Z,100596.69
2022-09-16T06:24:26.520Z,100590.38
2022-09-16T06:25:28.094Z,100585.03
2022-09-16T06:26:31.451Z,100595.72
2022-09-16T06:27:34.340Z,100598.38
2022-09-16T06:28:37.201Z,100594.03
2022-09-16T06:29:38.732Z,100600.19
2022-09-16T06:30:42.171Z,100595.72
2022-09-16T06:31:44.766Z,100597.41
2022-09-16T06:32:46.319Z,100593.72
2022-09-16T06:33:50.171Z,100597.09
2022-09-16T06:34:52.704Z,100590.59
2022-09-16T06:35:54.416Z,100593.81
2022-09-16T06:36:56.917Z,100594.47
2022-09-16T06:37:59.359Z,100589.84
2022-09-16T06:39:02.021Z,100588.84
2022-09-16T06:40:04.382Z,100586.03
2022-09-16T06:41:09.118Z,100585.84
2022-09-16T06:42:10.699Z,100578.69
2022-09-16T06:43:14.498Z,100575.88
2022-09-16T06:44:16.979Z,100569.69
2022-09-16T06:45:18.522Z,100581.22
2022-09-16T06:46:23.297Z,100573.34
2022-09-16T06:47:24.877Z,100580.50
2022-09-16T06:48:28.118Z,100582.38
2022-09-16T06:49:30.997Z,100587.72
2022-09-16T06:50:32.669Z,100579.84
2022-09-16T06:51:37.298Z,100576.19
2022-09-16T06:52:38.916Z,100583.19
2022-09-16T06:53:42.101Z,100587.53
2022-09-16T06:54:43.897Z,100575.88
2022-09-16T06:55:46.454Z,100586.56
2022-09-16T06:56:48.075Z,100586.38
2022-09-16T06:57:50.993Z,100588.06
2022-09-16T06:58:55.735Z,100581.03
2022-09-16T06:59:58.339Z,100586.25
2022-09-16T07:01:04.234Z,100585.41
2022-09-16T07:02:07.045Z,100582.59
2022-09-16T07:03:08.750Z,100578.91
2022-09-16T07:04:13.175Z,100587.63
2022-09-16T07:05:15.066Z,100582.97
2022-09-16T07:06:20.074Z,100580.28
2022-09-16T07:07:21.610Z,100582.50
2022-09-16T07:08:24.757Z,100580.69
2022-09-16T07:09:27.068Z,100584.72
2022-09-16T07:10:30.585Z,100587.41
2022-09-16T07:11:32.489Z,100585.44
2022-09-16T07:12:34.995Z,100585.25
2022-09-16T07:13:37.732Z,100588.59
2022-09-16T07:14:41.629Z,100591.97
2022-09-16T07:16:09.359Z,100598.16
2022-09-16T07:17:06.153Z,100594.47
2022-09-16T07:18:07.790Z,100591.66
2022-09-16T07:19:10.455Z,100596.03
2022-09-16T07:20:13.072Z,100589.84
2022-09-16T07:21:17.275Z,100593.88
2022-09-16T07:22:19.786Z,100593.03
2022-09-16T07:23:21.324Z,100593.88
2022-09-16T07:24:24.543Z,100600.88
2022-09-16T07:25:26.869Z,100607.25
2022-09-16T07:26:31.440Z,100599.22
2022-09-16T07:27:32.985Z,100603.72
2022-09-16T07:28:36.522Z,100603.88
2022-09-16T07:29:39.073Z,100607.53
2022-09-16T07:30:42.908Z,100600.66
2022-09-16T07:31:45.549Z,100605.16
2022-09-16T07:32:47.083Z,100609.97
2022-09-16T07:33:50.911Z,100604.13
2022-09-16T07:34:53.857Z,100603.59
2022-09-16T07:35:59.340Z,100603.03
2022-09-16T07:37:01.218Z,100608.50
2022-09-16T07:38:03.720Z,100614.03
2022-09-16T07:39:06.665Z,100607.00
2022-09-16T07:40:09.997Z,100612.34
2022-09-16T07:41:14.832Z,100609.53
2022-09-16T07:42:17.312Z,100611.19
2022-09-16T07:43:19.089Z,100611.03
2022-09-16T07:44:21.990Z,100612.44
2022-09-16T07:45:23.535Z,100606.94
2022-09-16T07:46:28.759Z,100609.16
2022-09-16T07:47:31.344Z,100614.19
2022-09-16T07:48:35.326Z,100604.19
2022-09-16T07:49:38.094Z,100606.53
2022-09-16T07:50:39.638Z,100609.91
2022-09-16T07:51:42.450Z,100605.25
2022-09-16T07:53:47.585Z,100605.59
2022-09-16T07:54:50.313Z,100608.97
2022-09-16T07:55:51.860Z,100614.31
2022-09-16T07:56:54.410Z,100615.97
2022-09-16T07:57:56.509Z,100615.00
2022-09-16T07:58:59.254Z,100615.97
2022-09-16T08:00:02.304Z,100618.81
2022-09-16T08:01:15.823Z,100621.63
2022-09-16T08:02:19.885Z,100628.00
2022-09-16T08:03:21.584Z,100625.47
2022-09-16T08:04:24.258Z,100624.63
2022-09-16T08:05:25.872Z,100623.78
2022-09-16T08:06:30.729Z,100630.13
2022-09-16T08:07:33.266Z,100628.63
2022-09-16T08:08:35.129Z,100635.94
2022-09-16T08:09:45.139Z,100631.56
2022-09-16T08:10:57.018Z,100631.28
2022-09-16T08:12:00.444Z,100625.94
2022-09-16T08:13:02.953Z,100631.28
2022-09-16T08:14:05.553Z,100636.47
2022-09-16T08:15:09.494Z,100639.97
2022-09-16T08:16:13.401Z,100630.97
2022-09-16T08:17:16.118Z,100628.97
2022-09-16T08:18:19.096Z,100636.84
2022-09-16T08:19:22.500Z,100645.69
2022-09-16T08:20:26.003Z,100632.50
2022-09-16T08:21:30.070Z,100633.66
2022-09-16T08:22:31.980Z,100640.66
2022-09-16T08:23:34.650Z,100639.66
2022-09-16T08:24:36.218Z,100634.19
2022-09-16T08:25:39.073Z,100634.00
2022-09-16T08:26:40.924Z,100637.22
2022-09-16T08:27:43.402Z,100640.72
2022-09-16T08:29:07.781Z,100643.09
2022-09-16T08:30:12.140Z,100634.22
2022-09-16T08:31:13.928Z,100642.09
2022-09-16T08:32:16.404Z,100638.41
2022-09-16T08:33:21.412Z,100640.09
2022-09-16T08:34:24.073Z,100640.78
2022-09-16T08:35:26.510Z,100638.81
2022-09-16T08:36:29.039Z,100638.63
2022-09-16T08:37:31.575Z,100640.19
2022-09-16T08:38:33.529Z,100642.53
2022-09-16T08:39:36.086Z,100636.88
2022-09-16T08:40:37.794Z,100639.38
2022-09-16T08:42:00.038Z,100639.91
2022-09-16T08:43:09.194Z,100636.91
2022-09-16T08:44:22.266Z,100631.25
2022-09-16T08:45:30.964Z,100634.44
2022-09-16T08:46:40.872Z,100640.31
2022-09-16T08:47:51.912Z,100632.16
2022-09-16T08:49:01.393Z,100634.66
2022-09-16T08:50:11.222Z,100635.69
2022-09-16T08:51:18.208Z,100638.50
2022-09-16T08:52:29.596Z,100645.66
2022-09-16T08:53:38.840Z,100643.00
2022-09-16T08:54:45.056Z,100637.66
2022-09-16T08:55:50.464Z,100642.53
2022-09-16T08:56:54.192Z,100649.09
2022-09-16T08:58:00.908Z,100649.94
2022-09-16T08:59:10.188Z,100645.34
2022-09-16T09:00:15.574Z,100647.78
2022-09-16T09:01:24.449Z,100651.16
2022-09-16T09:03:46.409Z,100645.50
2022-09-16T09:04:50.495Z,100645.22
2022-09-16T09:05:54.364Z,100644.38
2022-09-16T09:07:05.687Z,100637.00
2022-09-16T09:08:23.168Z,100641.38
2022-09-16T09:09:48.308Z,100645.03
2022-09-16T09:10:53.734Z,100641.00
2022-09-16T09:12:02.403Z,100656.38
2022-09-16T09:13:15.693Z,100645.03
2022-09-16T09:14:38.249Z,100647.69
2022-09-16T09:15:46.161Z,100654.72
2022-09-16T09:16:59.656Z,100653.38
2022-09-16T09:18:16.134Z,100649.41
2022-09-16T09:19:36.712Z,100650.44
2022-09-16T09:20:49.524Z,100647.75
2022-09-16T09:22:00.599Z,100664.88
2022-09-16T09:23:15.084Z,100653.34
2022-09-16T09:24:32.492Z,100658.56
2022-09-16T09:25:42.828Z,100652.34
2022-09-16T09:26:50.789Z,100661.25
2022-09-16T09:28:03.295Z,100660.59
2022-09-16T09:29:28.611Z,100663.28
2022-09-16T09:30:34.744Z,100653.06
2022-09-16T09:31:47.600Z,100646.38
2022-09-16T09:33:27.732Z,100651.25
2022-09-16T09:34:44.108Z,100649.59
2022-09-16T09:36:13.771Z,100642.38
2022-09-16T09:37:29.402Z,100649.59
2022-09-16T09:38:55.967Z,100647.41
2022-09-16T09:40:09.513Z,100648.56
2022-09-16T09:41:14.632Z,100639.88
2022-09-16T09:42:21.537Z,100640.72
2022-09-16T09:43:29.865Z,100644.06
2022-09-16T09:44:41.764Z,100639.19
2022-09-16T09:45:53.830Z,100637.88
2022-09-16T09:47:01.973Z,100635.34
2022-09-16T09:48:19.190Z,100637.50
2022-09-16T09:49:28.947Z,100632.84
2022-09-16T09:50:40.071Z,100627.47
2022-09-16T09:51:49.207Z,100638.03
2022-09-16T09:52:57.856Z,100633.16
2022-09-16T09:54:02.941Z,100637.19
2022-09-16T09:55:16.314Z,100634.34
2022-09-16T09:56:22.742Z,100635.16
2022-09-16T09:57:30.344Z,100629.81
2022-09-16T09:58:39.823Z,100625.47
2022-09-16T09:59:47.946Z,100626.31
2022-09-16T10:00:53.056Z,100625.28
2022-09-16T10:01:55.251Z,100633.16
2022-09-16T10:03:05.136Z,100626.13
2022-09-16T10:04:13.598Z,100620.94
2022-09-16T10:05:21.839Z,100625.63
2022-09-16T10:06:28.874Z,100630.47
2022-09-16T10:07:33.428Z,100631.81
2022-09-16T10:08:45.959Z,100626.78
2022-09-16T10:09:51.627Z,100623.78
2022-09-16T10:10:56.413Z,100626.81
2022-09-16T10:11:59.447Z,100630.50
2022-09-16T10:13:09.806Z,100634.34
2022-09-16T10:14:23.250Z,100632.00
2022-09-16T10:15:30.803Z,100628.47
2022-09-16T10:16:34.563Z,100631.16
2022-09-16T10:17:37.113Z,100626.47
2022-09-16T10:18:39.675Z,100619.09
2022-09-16T10:19:52.926Z,100621.59
2022-09-16T10:21:01.819Z,100630.50
2022-09-16T10:22:11.405Z,100631.19
2022-09-16T10:23:16.128Z,100629.16
2022-09-16T10:24:32.625Z,100630.84
2022-09-16T10:25:34.742Z,100634.19
2022-09-16T10:26:41.513Z,100631.50
2022-09-16T10:27:43.103Z,100642.88
2022-09-16T10:29:00.844Z,100630.50
2022-09-16T10:30:08.181Z,100640.53
2022-09-16T10:31:12.162Z,100644.41
2022-09-16T10:32:18.567Z,100641.41
2022-09-16T10:33:25.751Z,100634.84
2022-09-16T10:34:33.246Z,100638.88
2022-09-16T10:35:38.275Z,100638.50
2022-09-16T10:36:39.905Z,100638.16
2022-09-16T10:37:50.581Z,100635.31
2022-09-16T10:39:04.530Z,100644.50
2022-09-16T10:40:17.322Z,100628.09
2022-09-16T10:41:23.756Z,100623.06
2022-09-16T10:42:28.943Z,100625.38
2022-09-16T10:43:32.593Z,100627.06
2022-09-16T10:44:36.507Z,100626.72
2022-09-16T10:45:47.602Z,100623.38
2022-09-16T10:46:55.045Z,100618.00
2022-09-16T10:48:04.824Z,100609.78
2022-09-16T10:49:11.661Z,100619.38
2022-09-16T10:50:18.980Z,100615.66
2022-09-16T10:51:24.012Z,100617.34
2022-09-16T10:52:27.713Z,100620.34
2022-09-16T10:53:32.867Z,100616.19
2022-09-16T10:54:36.792Z,100613.00
2022-09-16T10:55:39.359Z,100614.31
2022-09-16T10:56:50.404Z,100623.34
2022-09-16T10:57:54.005Z,100624.50
2022-09-16T10:59:03.923Z,100615.97
2022-09-16T11:00:14.685Z,100621.31
2022-09-16T11:01:39.812Z,100621.16
2022-09-16T11:03:03.206Z,100622.50
2022-09-16T11:04:22.352Z,100625.69
2022-09-16T11:05:34.385Z,100614.50
2022-09-16T11:06:57.353Z,100619.38
2022-09-16T11:08:09.360Z,100625.22
2022-09-16T11:09:18.188Z,100615.19
2022-09-16T11:10:28.795Z,100609.31
2022-09-16T11:11:48.722Z,100619.41
2022-09-16T11:13:32.570Z,100618.72
2022-09-16T11:14:49.393Z,100620.03
2022-09-16T11:16:03.709Z,100612.69
2022-09-16T11:17:26.693Z,100617.88
2022-09-16T11:18:44.155Z,100616.03
2022-09-16T11:19:58.905Z,100612.38
2022-09-16T11:21:21.195Z,100617.38
2022-09-16T11:22:30.912Z,100613.19
2022-09-16T11:23:49.135Z,100611.56
2022-09-16T11:25:17.055Z,100614.41
2022-09-16T11:26:29.098Z,100606.53
2022-09-16T11:27:43.688Z,100610.38
2022-09-16T11:29:03.592Z,100618.41
2022-09-16T11:30:13.646Z,100603.66
2022-09-16T11:31:28.556Z,100610.38
2022-09-16T11:32:51.512Z,100615.75
2022-09-16T11:34:05.820Z,100611.38
2022-09-16T11:35:28.084Z,100617.72
2022-09-16T11:36:51.030Z,100619.75
2022-09-16T11:37:59.563Z,100618.25
2022-09-16T11:39:15.418Z,100627.47
2022-09-16T11:40:30.145Z,100625.81
2022-09-16T11:41:37.904Z,100629.28
2022-09-16T11:42:42.867Z,100636.34
2022-09-16T11:44:03.840Z,100638.19
2022-09-16T11:45:21.582Z,100638.19
2022-09-16T11:46:34.154Z,100639.88
2022-09-16T11:47:52.902Z,100649.75
2022-09-16T11:49:15.782Z,100657.47
2022-09-16T11:50:25.889Z,100671.06
2022-09-16T11:51:42.922Z,100667.00
2022-09-16T11:53:04.870Z,100682.38
2022-09-16T11:55:39.498Z,100686.28
2022-09-16T11:56:46.906Z,100681.72
2022-09-16T11:57:59.638Z,100682.50
2022-09-16T11:59:10.269Z,100685.44
2022-09-16T12:00:16.474Z,100689.19
2022-09-16T12:01:29.238Z,100683.41
2022-09-16T12:02:40.482Z,100677.34
2022-09-16T12:03:49.301Z,100678.16
2022-09-16T12:04:58.307Z,100685.97
2022-09-16T12:06:07.183Z,100678.38
2022-09-16T12:07:15.679Z,100676.38
2022-09-16T12:08:23.445Z,100671.03
2022-09-16T12:09:32.891Z,100678.06
2022-09-16T12:10:43.647Z,100676.91
2022-09-16T12:11:52.047Z,100666.91
2022-09-16T12:13:00.076Z,100672.09
2022-09-16T12:14:10.495Z,100670.13
2022-09-16T12:15:17.989Z,100670.94
2022-09-16T12:16:28.157Z,100670.78
2022-09-16T12:17:35.928Z,100677.00
2022-09-16T12:18:42.903Z,100661.78
2022-09-16T12:19:52.001Z,100666.28
2022-09-16T12:21:06.572Z,100665.31
2022-09-16T12:22:16.814Z,100657.41
2022-09-16T12:23:21.675Z,100658.41
2022-09-16T12:24:31.948Z,100662.78
2022-09-16T12:25:45.993Z,100661.09
2022-09-16T12:26:56.868Z,100663.75
2022-09-16T12:28:04.159Z,100661.94
2022-09-16T12:29:14.428Z,100664.47
2022-09-16T12:30:19.158Z,100656.97
2022-09-16T12:31:27.013Z,100661.81
2022-09-16T12:32:37.843Z,100660.66
2022-09-16T12:33:44.400Z,100665.69
2022-09-16T12:34:51.661Z,100661.88
2022-09-16T12:35:58.437Z,100659.72
2022-09-16T12:37:08.097Z,100656.56
2022-09-16T12:38:16.534Z,100656.22
2022-09-16T12:39:18.164Z,100658.75
2022-09-16T12:40:24.455Z,100661.28
2022-09-16T12:42:06.393Z,100650.59
2022-09-16T12:43:29.948Z,100652.28
2022-09-16T12:45:00.756Z,100655.94
2022-09-16T12:46:22.094Z,100659.75
2022-09-16T12:47:42.222Z,100652.88
2022-09-16T12:49:22.094Z,100655.72